Time;durP1;ratioP1;P1;durP2;ratioP2;P2;SDS_P1;SDS_P2;PMS_P1;PMS_P2;Temp;Humidity;BMP_temperature;BMP_pressure;BME280_temperature;BME280_humidity;BME280_pressure;Samples;Min_cycle;Max_cycle;Signal;HPM_P1;HPM_P2
2023/11/30 00:00:36;;;;;;;3.00;2.50;;;0.90;96.00;;;;;;5008435;28;20211;-85
2023/11/30 00:03:03;;;;;;;3.63;2.30;;;0.70;95.70;;;;;;5010545;28;20312;-85
2023/11/30 00:05:32;;;;;;;8.23;5.93;;;0.60;95.90;;;;;;5013202;28;20214;-85
2023/11/30 00:07:59;;;;;;;5.70;3.53;;;0.70;96.80;;;;;;5010318;28;20192;-85
2023/11/30 00:10:25;;;;;;;3.17;2.33;;;0.90;96.30;;;;;;5010980;28;20204;-85
2023/11/30 00:12:52;;;;;;;2.47;2.20;;;0.90;95.60;;;;;;5008147;28;20564;-86
2023/11/30 00:15:19;;;;;;;2.97;2.13;;;0.70;95.80;;;;;;5005708;28;20232;-85
2023/11/30 00:17:46;;;;;;;4.53;3.40;;;0.60;96.30;;;;;;5011094;28;20202;-85
2023/11/30 00:20:13;;;;;;;6.10;3.13;;;0.70;96.80;;;;;;5011178;28;20238;-85
2023/11/30 00:22:41;;;;;;;3.50;2.70;;;0.70;96.20;;;;;;5010491;28;20238;-85
2023/11/30 00:25:09;;;;;;;2.33;2.10;;;0.70;96.00;;;;;;5007193;28;20195;-86
2023/11/30 00:27:35;;;;;;;3.77;2.53;;;0.60;95.90;;;;;;5009545;28;20564;-85
2023/11/30 00:30:02;;;;;;;3.30;2.60;;;0.50;96.30;;;;;;5014631;28;20202;-86
2023/11/30 00:32:29;;;;;;;3.13;2.40;;;0.40;96.70;;;;;;5010386;28;20199;-86
2023/11/30 00:34:56;;;;;;;3.70;2.53;;;0.60;96.80;;;;;;5011631;28;20223;-86
2023/11/30 00:37:23;;;;;;;4.53;2.50;;;0.70;96.40;;;;;;5011028;28;20200;-86
2023/11/30 00:39:51;;;;;;;3.47;2.40;;;0.70;96.00;;;;;;5011147;28;20222;-86
2023/11/30 00:42:18;;;;;;;2.23;1.97;;;0.70;95.70;;;;;;5008756;28;20645;-85
2023/11/30 00:44:45;;;;;;;5.37;3.17;;;0.60;96.00;;;;;;5008358;28;20203;-86
2023/11/30 00:47:12;;;;;;;3.43;2.43;;;0.70;96.20;;;;;;5010997;28;20225;-85
2023/11/30 00:49:38;;;;;;;3.33;2.80;;;0.60;96.40;;;;;;5002405;28;20200;-85
2023/11/30 00:52:06;;;;;;;3.93;2.97;;;0.70;96.30;;;;;;5007166;28;20196;-86
2023/11/30 00:54:33;;;;;;;2.93;2.37;;;0.70;96.10;;;;;;5008255;28;20230;-85
2023/11/30 00:57:01;;;;;;;4.43;3.37;;;0.80;95.90;;;;;;5009244;28;20590;-85
2023/11/30 00:59:28;;;;;;;3.00;2.50;;;0.80;96.30;;;;;;5011710;28;20192;-85
2023/11/30 01:01:54;;;;;;;3.93;2.30;;;0.90;96.10;;;;;;5009508;28;20199;-85
2023/11/30 01:04:21;;;;;;;2.77;2.10;;;1.00;95.70;;;;;;5012309;28;20216;-85
2023/11/30 01:06:48;;;;;;;2.67;2.30;;;0.80;95.50;;;;;;5009416;28;20202;-85
2023/11/30 01:09:15;;;;;;;3.37;2.20;;;0.70;95.80;;;;;;5012015;28;20269;-85
2023/11/30 01:11:43;;;;;;;2.70;2.30;;;0.60;96.00;;;;;;5009717;28;20200;-84
2023/11/30 01:14:11;;;;;;;2.43;2.13;;;0.50;96.40;;;;;;5005857;28;20206;-85
2023/11/30 01:16:38;;;;;;;3.80;3.03;;;0.40;96.70;;;;;;5010450;28;20206;-85
2023/11/30 01:19:05;;;;;;;2.63;2.10;;;0.50;97.50;;;;;;5006202;28;20195;-85
2023/11/30 01:21:32;;;;;;;2.60;2.40;;;0.70;97.20;;;;;;5009957;28;20223;-84
2023/11/30 01:23:59;;;;;;;2.63;2.10;;;0.50;96.60;;;;;;5006995;28;20567;-84
2023/11/30 01:26:26;;;;;;;2.20;2.00;;;0.40;96.70;;;;;;5009078;28;20199;-85
2023/11/30 01:28:53;;;;;;;3.07;2.40;;;0.30;96.90;;;;;;5011211;28;20591;-85
2023/11/30 01:31:21;;;;;;;3.90;2.30;;;0.30;97.00;;;;;;5009809;28;20214;-85
2023/11/30 01:33:48;;;;;;;3.23;2.30;;;0.20;97.50;;;;;;5009804;28;20219;-85
2023/11/30 01:36:14;;;;;;;3.23;2.23;;;0.20;97.90;;;;;;5005577;28;20728;-85
2023/11/30 01:38:41;;;;;;;2.90;2.50;;;0.40;98.00;;;;;;5009784;28;20199;-84
2023/11/30 01:41:08;;;;;;;2.77;2.30;;;0.50;97.50;;;;;;5008753;28;20203;-85
2023/11/30 01:43:35;;;;;;;2.60;2.13;;;0.50;96.90;;;;;;5002231;28;20203;-84
2023/11/30 01:46:02;;;;;;;3.50;2.30;;;0.40;97.00;;;;;;5008412;28;20665;-84
2023/11/30 01:48:31;;;;;;;3.17;2.30;;;0.30;96.80;;;;;;5007198;28;20222;-85
2023/11/30 01:50:58;;;;;;;2.47;1.93;;;0.20;97.20;;;;;;5007903;28;20202;-85
2023/11/30 01:53:25;;;;;;;3.10;2.40;;;0.40;97.40;;;;;;5009371;28;20207;-85
2023/11/30 01:55:52;;;;;;;2.40;2.20;;;0.40;97.10;;;;;;5002070;28;20232;-85
2023/11/30 01:58:19;;;;;;;3.10;2.20;;;0.30;96.90;;;;;;5004634;28;20207;-84
2023/11/30 02:00:48;;;;;;;2.97;2.30;;;0.30;97.10;;;;;;5000215;28;20199;-85
2023/11/30 02:03:17;;;;;;;2.93;2.10;;;0.30;97.10;;;;;;5008727;28;20223;-85
2023/11/30 02:05:47;;;;;;;2.57;2.27;;;0.50;96.90;;;;;;5008699;28;20672;-85
2023/11/30 02:08:14;;;;;;;3.30;2.70;;;0.50;97.00;;;;;;5007564;28;20195;-84
2023/11/30 02:10:41;;;;;;;2.63;2.30;;;0.60;96.80;;;;;;5004207;28;20199;-85
2023/11/30 02:13:07;;;;;;;2.70;2.10;;;0.60;97.00;;;;;;5006500;28;20656;-85
2023/11/30 02:15:35;;;;;;;2.00;1.80;;;0.50;96.60;;;;;;5006512;28;20265;-85
2023/11/30 02:18:02;;;;;;;3.80;2.20;;;0.40;96.70;;;;;;5007844;28;20206;-84
2023/11/30 02:20:29;;;;;;;3.00;2.30;;;0.30;96.60;;;;;;5007298;28;20644;-85
2023/11/30 02:22:57;;;;;;;5.07;2.60;;;0.30;96.70;;;;;;5002813;28;20234;-85
2023/11/30 02:25:24;;;;;;;2.70;2.10;;;0.30;97.30;;;;;;5001849;28;20587;-85
2023/11/30 02:27:51;;;;;;;3.23;2.30;;;0.40;97.30;;;;;;5004527;28;20195;-85
2023/11/30 02:30:17;;;;;;;2.87;2.40;;;0.50;97.00;;;;;;5010798;28;20191;-85
2023/11/30 02:32:44;;;;;;;2.77;2.30;;;0.50;97.50;;;;;;5007926;28;20217;-84
2023/11/30 02:35:12;;;;;;;2.37;2.17;;;0.70;97.20;;;;;;5007983;28;20227;-85
2023/11/30 02:37:39;;;;;;;2.20;2.00;;;0.70;96.70;;;;;;5010583;28;20202;-85
2023/11/30 02:40:08;;;;;;;2.10;1.90;;;0.60;96.50;;;;;;5008680;28;20195;-85
2023/11/30 02:42:35;;;;;;;3.80;2.10;;;0.60;96.70;;;;;;5019201;28;20213;-84
2023/11/30 02:45:02;;;;;;;3.07;2.20;;;0.60;96.80;;;;;;5020192;28;20202;-84
2023/11/30 02:47:29;;;;;;;2.63;2.10;;;0.50;96.70;;;;;;5017475;28;20648;-85
2023/11/30 02:49:56;;;;;;;2.10;1.90;;;0.80;97.00;;;;;;5008102;28;20297;-85
2023/11/30 02:52:22;;;;;;;3.67;1.90;;;0.80;96.30;;;;;;5006992;28;20575;-85
2023/11/30 02:54:49;;;;;;;3.13;2.17;;;0.90;96.10;;;;;;5006124;28;20228;-85
2023/11/30 02:57:17;;;;;;;2.73;1.93;;;0.90;97.20;;;;;;5007257;28;20203;-85
2023/11/30 02:59:44;;;;;;;3.30;1.80;;;1.10;96.60;;;;;;5009041;28;20207;-85
2023/11/30 03:02:14;;;;;;;2.87;2.30;;;1.10;96.00;;;;;;5006403;28;20195;-85
2023/11/30 03:04:40;;;;;;;3.27;2.27;;;1.10;95.90;;;;;;5004215;28;20207;-85
2023/11/30 03:07:07;;;;;;;2.10;1.90;;;1.20;95.60;;;;;;5008924;28;20202;-85
2023/11/30 03:09:34;;;;;;;2.27;2.07;;;1.10;95.70;;;;;;5005582;28;20570;-84
2023/11/30 03:12:01;;;;;;;2.07;1.87;;;1.10;95.90;;;;;;5007370;28;20418;-85
2023/11/30 03:14:29;;;;;;;3.83;2.07;;;1.10;95.90;;;;;;5009778;28;20251;-84
2023/11/30 03:16:57;;;;;;;2.43;1.70;;;0.90;95.60;;;;;;5010532;28;21257;-85
2023/11/30 03:19:24;;;;;;;2.63;1.77;;;0.60;96.10;;;;;;5003710;28;20203;-85
2023/11/30 03:21:51;;;;;;;2.60;2.40;;;0.40;96.50;;;;;;5002747;28;20700;-84
2023/11/30 03:24:18;;;;;;;2.97;2.30;;;0.30;96.70;;;;;;5003925;28;20285;-84
2023/11/30 03:26:45;;;;;;;2.47;2.27;;;0.30;97.30;;;;;;5004955;28;20207;-84
2023/11/30 03:29:12;;;;;;;2.40;1.80;;;0.50;98.00;;;;;;5005315;28;20207;-83
2023/11/30 03:31:40;;;;;;;1.90;1.80;;;0.90;97.10;;;;;;5007693;28;20195;-83
2023/11/30 03:34:06;;;;;;;2.60;1.80;;;1.00;96.10;;;;;;5007195;28;20212;-82
2023/11/30 03:36:33;;;;;;;2.87;2.10;;;1.20;95.90;;;;;;5006074;28;20230;-82
2023/11/30 03:39:00;;;;;;;2.47;1.97;;;1.40;95.80;;;;;;5005196;28;20210;-83
2023/11/30 03:41:27;;;;;;;1.73;1.60;;;1.40;94.30;;;;;;5008031;28;20203;-82
2023/11/30 03:43:54;;;;;;;2.00;1.80;;;1.40;94.30;;;;;;5009246;28;20540;-83
2023/11/30 03:46:23;;;;;;;2.10;1.90;;;1.30;94.30;;;;;;5007870;28;20885;-83
2023/11/30 03:48:52;;;;;;;1.87;1.67;;;1.30;94.30;;;;;;5006399;28;21034;-82
2023/11/30 03:51:19;;;;;;;2.23;2.03;;;1.10;94.30;;;;;;5004305;28;20215;-82
2023/11/30 03:53:45;;;;;;;1.97;1.70;;;1.10;95.20;;;;;;5003865;28;20656;-83
2023/11/30 03:56:12;;;;;;;2.60;1.60;;;1.30;95.30;;;;;;5006585;28;20733;-83
2023/11/30 03:58:39;;;;;;;2.03;1.57;;;1.30;94.90;;;;;;5006457;28;20202;-83
2023/11/30 04:01:07;;;;;;;1.90;1.80;;;1.40;94.30;;;;;;5006959;28;20196;-83
2023/11/30 04:03:34;;;;;;;2.10;1.90;;;1.40;94.30;;;;;;5001577;28;20207;-83
2023/11/30 04:06:03;;;;;;;2.30;2.00;;;1.30;94.00;;;;;;5003621;28;20208;-84
2023/11/30 04:08:30;;;;;;;2.20;1.80;;;1.10;94.20;;;;;;5007511;28;20199;-85
2023/11/30 04:10:56;;;;;;;2.00;1.73;;;1.20;95.80;;;;;;5013038;28;20214;-84
2023/11/30 04:13:25;;;;;;;2.73;1.87;;;1.30;94.30;;;;;;5005682;28;20207;-85
2023/11/30 04:15:52;;;;;;;3.67;2.00;;;1.10;94.80;;;;;;5005527;28;20223;-85
2023/11/30 04:18:18;;;;;;;2.70;2.00;;;1.20;95.00;;;;;;5011246;28;20227;-85
2023/11/30 04:20:44;;;;;;;2.37;1.87;;;1.00;94.50;;;;;;5004971;28;20217;-85
2023/11/30 04:23:13;;;;;;;1.73;1.63;;;1.00;95.30;;;;;;5004339;28;20227;-84
2023/11/30 04:25:40;;;;;;;2.80;1.80;;;1.10;94.80;;;;;;5010387;28;20226;-85
2023/11/30 04:28:06;;;;;;;1.87;1.77;;;1.30;94.90;;;;;;5007974;28;20214;-84
2023/11/30 04:30:33;;;;;;;2.20;2.00;;;1.10;94.30;;;;;;5005845;28;20206;-84
2023/11/30 04:33:00;;;;;;;1.87;1.67;;;0.90;94.70;;;;;;5011968;28;20199;-84
2023/11/30 04:35:27;;;;;;;2.50;1.90;;;1.10;94.90;;;;;;5001948;28;20224;-84
2023/11/30 04:37:53;;;;;;;2.27;1.77;;;1.40;94.80;;;;;;5009566;28;20209;-84
2023/11/30 04:40:23;;;;;;;2.00;1.80;;;1.40;94.30;;;;;;5012391;28;20209;-84
2023/11/30 04:42:49;;;;;;;2.10;1.90;;;1.20;94.60;;;;;;5012187;28;20200;-84
2023/11/30 04:45:16;;;;;;;1.77;1.67;;;1.20;95.10;;;;;;5008413;28;20196;-84
2023/11/30 04:47:43;;;;;;;3.90;1.93;;;1.10;94.80;;;;;;5013549;28;20203;-84
2023/11/30 04:50:11;;;;;;;2.20;1.90;;;1.00;95.50;;;;;;5011625;28;20192;-84
2023/11/30 04:52:38;;;;;;;1.80;1.70;;;1.20;95.00;;;;;;5011503;28;20204;-83
2023/11/30 04:55:06;;;;;;;2.00;1.80;;;1.20;94.30;;;;;;5010955;28;20203;-84
2023/11/30 04:57:34;;;;;;;2.53;2.10;;;1.00;95.10;;;;;;5010155;28;20235;-84
2023/11/30 05:00:01;;;;;;;1.90;1.70;;;0.80;94.90;;;;;;5010994;28;20196;-84
2023/11/30 05:02:28;;;;;;;1.40;1.30;;;0.80;95.50;;;;;;5013571;28;21039;-84
2023/11/30 05:04:55;;;;;;;3.53;1.70;;;0.80;94.90;;;;;;5008706;28;20195;-83
2023/11/30 05:07:21;;;;;;;2.00;1.60;;;0.80;95.10;;;;;;5010997;28;20211;-84
2023/11/30 05:09:48;;;;;;;1.77;1.60;;;0.80;94.90;;;;;;5006056;28;20971;-83
2023/11/30 05:12:15;;;;;;;1.70;1.60;;;0.90;94.80;;;;;;5010914;28;20199;-84
2023/11/30 05:14:44;;;;;;;2.00;1.80;;;0.90;94.20;;;;;;5005864;28;20214;-84
2023/11/30 05:17:10;;;;;;;2.47;1.80;;;0.90;94.70;;;;;;5006902;28;20223;-84
2023/11/30 05:19:37;;;;;;;1.73;1.63;;;0.80;94.70;;;;;;5007495;28;20209;-83
2023/11/30 05:22:04;;;;;;;1.93;1.63;;;0.70;94.90;;;;;;5010897;28;20223;-84
2023/11/30 05:24:31;;;;;;;2.53;1.90;;;0.70;94.90;;;;;;5010196;28;20202;-83
2023/11/30 05:26:58;;;;;;;2.33;1.77;;;0.60;95.20;;;;;;5002102;28;20203;-84
2023/11/30 05:29:25;;;;;;;2.10;1.90;;;0.70;95.70;;;;;;5007272;28;20196;-83
2023/11/30 05:31:53;;;;;;;2.00;1.60;;;0.50;95.70;;;;;;5008005;28;20589;-84
2023/11/30 05:34:20;;;;;;;2.23;1.70;;;0.80;95.70;;;;;;5003809;28;20290;-83
2023/11/30 05:36:47;;;;;;;1.90;1.70;;;1.00;94.90;;;;;;5007675;28;20609;-84
2023/11/30 05:39:15;;;;;;;1.40;1.30;;;1.10;94.20;;;;;;5011899;28;20636;-84
2023/11/30 05:41:44;;;;;;;2.97;1.77;;;1.00;94.20;;;;;;5009788;28;20201;-85
2023/11/30 05:44:11;;;;;;;2.13;1.80;;;0.80;94.20;;;;;;5005244;28;20207;-84
2023/11/30 05:46:38;;;;;;;2.37;1.70;;;0.70;94.80;;;;;;5003934;28;20208;-84
2023/11/30 05:49:06;;;;;;;1.90;1.70;;;0.60;95.60;;;;;;5008868;28;20644;-84
2023/11/30 05:51:33;;;;;;;1.90;1.80;;;0.70;95.70;;;;;;5007428;28;20203;-84
2023/11/30 05:54:00;;;;;;;1.73;1.60;;;0.80;95.30;;;;;;5014842;28;20202;-83
2023/11/30 05:56:26;;;;;;;3.57;1.83;;;1.10;94.20;;;;;;5026453;28;20302;-84
2023/11/30 05:58:53;;;;;;;2.47;1.70;;;1.00;94.20;;;;;;5033727;28;20271;-83
2023/11/30 06:01:20;;;;;;;1.80;1.70;;;0.80;94.80;;;;;;5030295;28;20294;-84
2023/11/30 06:03:47;;;;;;;1.90;1.70;;;0.90;94.90;;;;;;5009006;28;20209;-84
2023/11/30 06:06:15;;;;;;;2.00;1.57;;;1.00;95.00;;;;;;5004799;28;20769;-84
2023/11/30 06:08:42;;;;;;;1.90;1.70;;;1.00;95.00;;;;;;5005362;28;20541;-84
2023/11/30 06:11:09;;;;;;;1.70;1.60;;;0.90;95.30;;;;;;5011641;28;20225;-84
2023/11/30 06:13:35;;;;;;;4.40;1.93;;;0.80;95.30;;;;;;5008515;28;20203;-84
2023/11/30 06:16:02;;;;;;;2.40;1.83;;;1.00;95.60;;;;;;5007990;28;20234;-84
2023/11/30 06:18:29;;;;;;;2.10;1.60;;;1.20;95.10;;;;;;5008846;28;20203;-84
2023/11/30 06:20:56;;;;;;;1.90;1.70;;;1.30;94.50;;;;;;5004826;28;20688;-84
2023/11/30 06:23:26;;;;;;;1.97;1.77;;;1.40;94.60;;;;;;5007998;28;20239;-84
2023/11/30 06:25:53;;;;;;;2.63;2.10;;;1.30;94.30;;;;;;5007942;28;20200;-84
2023/11/30 06:28:20;;;;;;;2.33;1.70;;;1.40;94.30;;;;;;5005353;28;20273;-83
2023/11/30 06:30:48;;;;;;;2.03;1.80;;;1.30;94.30;;;;;;5002816;28;20211;-85
2023/11/30 06:33:15;;;;;;;1.90;1.70;;;1.30;94.30;;;;;;5010253;28;20199;-84
2023/11/30 06:35:42;;;;;;;4.10;1.53;;;1.40;94.30;;;;;;5005998;28;20718;-84
2023/11/30 06:38:10;;;;;;;1.90;1.70;;;1.40;94.80;;;;;;5003194;28;20192;-84
2023/11/30 06:40:38;;;;;;;2.77;2.00;;;1.40;94.30;;;;;;5002849;28;20199;-84
2023/11/30 06:43:05;;;;;;;3.10;1.90;;;1.50;94.60;;;;;;5009203;28;20221;-84
2023/11/30 06:45:32;;;;;;;2.23;1.80;;;1.30;94.30;;;;;;5009700;28;20199;-84
2023/11/30 06:47:59;;;;;;;2.37;2.00;;;1.30;94.90;;;;;;5009636;28;20692;-84
2023/11/30 06:50:25;;;;;;;2.10;1.90;;;1.30;94.80;;;;;;5007473;28;21305;-84
2023/11/30 06:52:52;;;;;;;2.60;2.00;;;1.30;94.30;;;;;;5004820;28;20199;-84
2023/11/30 06:55:19;;;;;;;3.20;2.57;;;1.30;94.60;;;;;;5009976;28;20209;-84
2023/11/30 06:57:47;;;;;;;3.80;2.27;;;1.20;94.30;;;;;;5000214;28;20216;-84
2023/11/30 07:00:15;;;;;;;3.73;2.23;;;1.60;95.80;;;;;;5011529;28;20203;-85
2023/11/30 07:02:43;;;;;;;2.93;2.67;;;1.60;94.40;;;;;;5010466;28;20206;-85
2023/11/30 07:05:11;;;;;;;2.70;2.43;;;1.70;95.00;;;;;;5009539;28;20192;-85
2023/11/30 07:07:37;;;;;;;3.00;2.70;;;1.70;94.40;;;;;;5006663;28;20203;-85
2023/11/30 07:10:05;;;;;;;4.20;3.27;;;1.70;94.40;;;;;;5006501;28;20195;-85
2023/11/30 07:12:32;;;;;;;4.43;3.43;;;1.80;94.40;;;;;;5004592;28;20204;-86
2023/11/30 07:15:00;;;;;;;4.87;3.43;;;1.70;93.60;;;;;;5004115;28;20323;-85
2023/11/30 07:17:27;;;;;;;4.70;3.10;;;1.70;94.40;;;;;;5007103;28;20319;-86
2023/11/30 07:19:53;;;;;;;3.63;2.90;;;1.60;94.00;;;;;;5004946;28;20195;-86
2023/11/30 07:22:22;;;;;;;5.17;3.10;;;1.60;94.00;;;;;;5002501;28;20229;-86
2023/11/30 07:24:49;;;;;;;3.83;2.50;;;1.50;94.30;;;;;;5007675;28;20742;-86
2023/11/30 07:27:18;;;;;;;3.10;2.47;;;1.50;94.60;;;;;;5006884;28;20206;-86
2023/11/30 07:29:45;;;;;;;3.13;2.60;;;1.60;94.40;;;;;;5008561;28;20615;-86
2023/11/30 07:32:16;;;;;;;3.40;2.67;;;1.70;94.40;;;;;;5007129;28;20191;-86
2023/11/30 07:34:42;;;;;;;2.83;2.50;;;1.90;94.40;;;;;;5005967;28;20275;-86
2023/11/30 07:37:09;;;;;;;3.50;2.67;;;1.90;93.70;;;;;;5006749;28;20223;-84
2023/11/30 07:39:36;;;;;;;3.97;2.40;;;1.90;93.10;;;;;;5008533;28;20566;-86
2023/11/30 07:42:03;;;;;;;4.17;2.73;;;2.00;93.60;;;;;;5008851;28;20200;-85
2023/11/30 07:44:30;;;;;;;3.17;2.33;;;2.10;93.50;;;;;;5014316;28;20204;-88
2023/11/30 07:46:57;;;;;;;2.50;2.30;;;2.40;92.10;;;;;;5059220;22;20230;-87
2023/11/30 07:49:25;;;;;;;2.73;2.20;;;2.40;92.10;;;;;;5027624;28;20211;-88
2023/11/30 07:51:52;;;;;;;4.50;2.50;;;2.10;92.30;;;;;;5026184;28;20204;-85
2023/11/30 07:54:19;;;;;;;4.47;2.47;;;2.10;93.20;;;;;;5027333;28;20218;-87
2023/11/30 07:56:45;;;;;;;3.47;2.47;;;2.30;92.60;;;;;;5029819;28;20242;-84
2023/11/30 07:59:12;;;;;;;2.93;2.40;;;2.50;92.90;;;;;;5026834;28;20644;-84
2023/11/30 08:01:39;;;;;;;4.17;3.00;;;2.60;92.50;;;;;;5027283;28;20199;-86
2023/11/30 08:04:07;;;;;;;3.40;2.70;;;2.50;91.20;;;;;;5028364;28;20195;-89
2023/11/30 08:06:35;;;;;;;4.00;2.77;;;2.50;91.70;;;;;;5026731;28;20290;-85
2023/11/30 08:09:03;;;;;;;4.83;2.80;;;2.50;91.70;;;;;;5030718;28;20211;-89
2023/11/30 08:11:30;;;;;;;3.97;2.50;;;2.50;91.40;;;;;;5129052;22;20376;-90
2023/11/30 08:13:56;;;;;;;4.20;2.83;;;2.50;91.30;;;;;;5082185;28;20213;-88
2023/11/30 08:16:24;;;;;;;3.87;2.97;;;2.60;91.90;;;;;;5084044;28;20200;-92
2023/11/30 08:18:51;;;;;;;3.70;2.70;;;2.80;91.90;;;;;;5068146;28;20197;-91
2023/11/30 08:21:19;;;;;;;3.53;2.80;;;2.80;92.10;;;;;;5089606;28;20268;-90
2023/11/30 08:23:47;;;;;;;2.80;2.50;;;2.60;91.20;;;;;;5079283;28;20275;-88
2023/11/30 08:26:15;;;;;;;4.20;3.00;;;2.60;91.30;;;;;;5085585;28;20184;-89
2023/11/30 08:28:42;;;;;;;4.37;3.07;;;2.60;91.20;;;;;;5080185;28;20258;-91
2023/11/30 08:31:09;;;;;;;4.10;2.83;;;2.70;91.80;;;;;;5081896;28;20214;-92
2023/11/30 08:33:35;;;;;;;4.20;3.13;;;2.70;91.00;;;;;;5078677;28;20239;-89
2023/11/30 08:36:04;;;;;;;4.70;3.20;;;2.80;91.90;;;;;;5080812;28;20263;-92
2023/11/30 08:38:31;;;;;;;6.73;3.80;;;2.60;91.50;;;;;;5082636;28;20217;-90
2023/11/30 08:41:00;;;;;;;5.00;2.93;;;2.60;91.80;;;;;;5076165;28;20193;-93
2023/11/30 08:43:26;;;;;;;4.70;3.40;;;2.70;93.00;;;;;;5084787;28;20264;-91
2023/11/30 08:45:53;;;;;;;7.40;3.23;;;2.80;91.80;;;;;;5076707;28;20206;-92
2023/11/30 08:48:20;;;;;;;6.33;3.53;;;2.60;91.30;;;;;;5075002;28;20205;-92
2023/11/30 08:50:47;;;;;;;4.93;3.30;;;2.40;91.20;;;;;;5065357;28;20212;-91
2023/11/30 08:53:15;;;;;;;97.60;58.33;;;2.20;91.80;;;;;;5080032;28;20209;-91
2023/11/30 08:55:44;;;;;;;45.53;28.47;;;2.40;94.10;;;;;;5075029;28;20651;-92
2023/11/30 08:58:12;;;;;;;42.37;26.13;;;2.70;93.30;;;;;;5083149;28;20224;-92
2023/11/30 09:00:40;;;;;;;4.30;3.20;;;2.90;92.10;;;;;;5075910;28;20200;-92
2023/11/30 09:03:07;;;;;;;33.60;20.70;;;2.80;91.00;;;;;;5082557;28;20178;-88
2023/11/30 09:05:34;;;;;;;19.37;11.43;;;3.00;92.70;;;;;;5077096;28;20266;-91
2023/11/30 09:08:01;;;;;;;4.60;3.30;;;3.10;91.30;;;;;;5065334;28;20215;-90
2023/11/30 09:10:29;;;;;;;21.40;13.63;;;3.10;90.90;;;;;;5085903;28;20226;-88
2023/11/30 09:12:56;;;;;;;34.47;21.37;;;3.10;91.60;;;;;;5087056;28;20202;-91
2023/11/30 09:15:24;;;;;;;31.27;19.03;;;3.20;92.00;;;;;;5077943;28;20205;-92
2023/11/30 09:17:51;;;;;;;59.40;38.53;;;3.30;90.60;;;;;;5072906;28;20217;-88
2023/11/30 09:20:19;;;;;;;62.30;39.60;;;3.10;92.00;;;;;;5074389;28;20190;-89
2023/11/30 09:22:46;;;;;;;4.97;3.63;;;3.20;92.00;;;;;;5076973;28;20887;-88
2023/11/30 09:25:13;;;;;;;10.63;6.10;;;3.00;91.00;;;;;;5080909;28;20642;-91
2023/11/30 09:27:40;;;;;;;4.70;3.20;;;3.10;91.50;;;;;;5070803;28;20193;-92
2023/11/30 09:30:10;;;;;;;17.37;10.03;;;2.90;91.20;;;;;;5071377;28;20198;-89
2023/11/30 09:32:38;;;;;;;27.20;17.33;;;2.80;92.70;;;;;;5077249;28;20231;-92
2023/11/30 09:35:06;;;;;;;5.63;3.77;;;2.70;92.40;;;;;;5077692;28;20265;-91
2023/11/30 09:37:33;;;;;;;25.37;15.10;;;2.60;92.20;;;;;;5130207;22;20234;-91
2023/11/30 09:40:00;;;;;;;7.47;4.70;;;2.60;93.30;;;;;;5302487;22;20228;-90
2023/11/30 09:42:29;;;;;;;9.20;4.93;;;2.60;93.20;;;;;;5104093;23;20225;-89
2023/11/30 09:44:59;;;;;;;7.60;3.90;;;2.50;93.20;;;;;;5073011;28;20201;-88
2023/11/30 09:47:26;;;;;;;9.17;6.03;;;2.40;93.90;;;;;;5064869;28;20204;-89
2023/11/30 09:49:54;;;;;;;5.20;4.20;;;2.20;94.60;;;;;;5069159;28;20201;-86
2023/11/30 09:52:22;;;;;;;12.33;8.57;;;2.10;94.50;;;;;;5048967;28;20681;-86
2023/11/30 09:54:54;;;;;;;4.73;3.53;;;2.50;97.30;;;;;;5063105;28;20577;-87
2023/11/30 09:57:23;;;;;;;5.67;3.60;;;2.40;94.50;;;;;;5064813;28;20232;-90
2023/11/30 09:59:50;;;;;;;4.57;4.00;;;2.40;94.50;;;;;;5069983;28;20272;-83
2023/11/30 10:02:17;;;;;;;4.73;4.03;;;2.40;94.50;;;;;;5064611;28;20220;-84
2023/11/30 10:04:45;;;;;;;6.27;4.57;;;2.30;94.50;;;;;;5063505;28;20248;-83
2023/11/30 10:07:13;;;;;;;4.83;4.27;;;2.50;96.10;;;;;;5065849;28;20205;-83
2023/11/30 10:09:40;;;;;;;4.17;3.70;;;2.50;94.90;;;;;;5070041;28;20196;-83
2023/11/30 10:12:07;;;;;;;4.97;3.87;;;2.50;95.20;;;;;;5074798;28;20203;-87
2023/11/30 10:14:34;;;;;;;13.20;8.03;;;2.40;94.90;;;;;;5063954;28;20680;-90
2023/11/30 10:17:01;;;;;;;10.00;6.37;;;2.30;96.10;;;;;;5068644;28;20200;-84
2023/11/30 10:19:28;;;;;;;11.20;6.10;;;2.30;96.50;;;;;;5072485;28;20215;-85
2023/11/30 10:21:56;;;;;;;8.00;5.80;;;2.20;96.40;;;;;;5057763;28;20589;-86
2023/11/30 10:24:24;;;;;;;5.83;4.20;;;2.20;96.80;;;;;;5046414;28;20210;-85
2023/11/30 10:26:52;;;;;;;4.97;4.30;;;2.20;96.40;;;;;;5046256;28;20195;-86
2023/11/30 10:29:20;;;;;;;5.67;4.20;;;2.20;96.30;;;;;;5045042;28;20206;-85
2023/11/30 10:31:50;;;;;;;7.90;5.23;;;2.20;96.50;;;;;;5042759;28;20196;-86
2023/11/30 10:34:25;;;;;;;5.37;4.30;;;2.30;97.70;;;;;;5048410;28;20194;-86
2023/11/30 10:36:54;;;;;;;18.97;9.50;;;2.40;96.90;;;;;;5045229;28;20197;-86
2023/11/30 10:39:26;;;;;;;9.97;5.50;;;2.40;97.60;;;;;;5047449;28;20205;-84
2023/11/30 10:41:55;;;;;;;7.27;4.23;;;2.50;97.70;;;;;;5047148;28;20205;-86
2023/11/30 10:44:26;;;;;;;8.77;4.50;;;2.40;96.70;;;;;;5048715;28;20655;-86
2023/11/30 10:46:54;;;;;;;7.27;4.23;;;2.40;96.80;;;;;;5046760;28;20686;-84
2023/11/30 10:49:23;;;;;;;9.07;4.27;;;2.10;96.90;;;;;;5050593;28;20198;-85
2023/11/30 10:51:51;;;;;;;10.43;4.70;;;2.10;97.40;;;;;;5051143;28;20206;-84
2023/11/30 10:54:27;;;;;;;7.50;4.60;;;2.10;97.70;;;;;;5051198;28;20201;-86
2023/11/30 10:56:54;;;;;;;6.87;4.10;;;2.20;97.70;;;;;;5046694;28;20220;-86
2023/11/30 10:59:24;;;;;;;8.20;4.27;;;2.10;97.70;;;;;;5049919;28;20225;-85
2023/11/30 11:01:51;;;;;;;9.17;4.53;;;2.00;98.10;;;;;;5046459;28;20209;-83
2023/11/30 11:04:18;;;;;;;5.93;4.10;;;2.10;98.40;;;;;;5050971;28;20194;-83
2023/11/30 11:06:45;;;;;;;10.67;5.33;;;2.20;97.90;;;;;;5044921;28;21034;-83
2023/11/30 11:09:16;;;;;;;5.77;4.30;;;2.20;98.10;;;;;;5045657;28;20194;-83
2023/11/30 11:11:44;;;;;;;9.30;5.53;;;2.20;98.50;;;;;;5049083;28;20194;-82
2023/11/30 11:14:26;;;;;;;7.57;4.10;;;2.00;99.00;;;;;;5048198;28;20202;-83
2023/11/30 11:17:04;;;;;;;6.60;3.90;;;2.10;99.30;;;;;;5046356;28;20190;-88
2023/11/30 11:19:32;;;;;;;8.27;4.70;;;2.10;99.20;;;;;;5048227;28;20267;-88
2023/11/30 11:21:59;;;;;;;7.40;4.73;;;2.20;99.00;;;;;;5032995;28;20669;-82
2023/11/30 11:24:26;;;;;;;6.63;4.20;;;2.30;99.10;;;;;;5052149;28;20247;-82
2023/11/30 11:26:59;;;;;;;4.97;3.97;;;2.40;98.40;;;;;;5052466;28;20198;-81
2023/11/30 11:29:28;;;;;;;6.77;4.40;;;2.40;97.90;;;;;;5051241;28;20197;-82
2023/11/30 11:31:57;;;;;;;7.03;4.00;;;2.40;98.00;;;;;;5054185;28;20204;-85
2023/11/30 11:34:24;;;;;;;6.90;4.00;;;2.30;97.70;;;;;;5032749;28;20205;-81
2023/11/30 11:36:51;;;;;;;5.30;3.83;;;2.20;98.10;;;;;;5046403;28;20199;-85
2023/11/30 11:39:17;;;;;;;8.10;4.90;;;2.00;98.10;;;;;;5049574;28;20719;-85
2023/11/30 11:41:47;;;;;;;9.00;5.13;;;2.00;99.60;;;;;;5048660;28;20559;-84
2023/11/30 11:44:15;;;;;;;5.83;4.30;;;2.10;99.60;;;;;;5050406;28;20209;-84
2023/11/30 11:46:42;;;;;;;5.40;4.30;;;2.30;99.20;;;;;;5053022;28;20559;-84
2023/11/30 11:49:09;;;;;;;6.47;4.33;;;2.40;98.20;;;;;;5051914;28;20213;-84
2023/11/30 11:51:44;;;;;;;6.37;4.13;;;2.50;97.90;;;;;;5054922;28;20289;-84
2023/11/30 11:54:17;;;;;;;6.13;4.37;;;2.40;97.70;;;;;;5048881;28;20205;-85
2023/11/30 11:56:48;;;;;;;6.73;4.73;;;2.20;98.10;;;;;;5050027;28;20205;-85
2023/11/30 11:59:21;;;;;;;8.23;4.47;;;2.20;98.80;;;;;;5043549;28;20682;-84
2023/11/30 12:01:48;;;;;;;5.27;4.00;;;2.20;98.20;;;;;;5047278;28;20206;-84
2023/11/30 12:04:26;;;;;;;5.43;4.17;;;2.20;98.10;;;;;;5051171;28;20561;-84
2023/11/30 12:06:53;;;;;;;5.00;4.03;;;2.20;97.90;;;;;;5050709;28;20205;-85
2023/11/30 12:09:20;;;;;;;5.60;4.13;;;2.20;98.00;;;;;;5040065;28;20207;-85
2023/11/30 12:11:47;;;;;;;4.07;3.63;;;2.20;97.60;;;;;;5049906;28;20210;-84
2023/11/30 12:14:14;;;;;;;5.70;3.87;;;2.10;97.50;;;;;;5049652;28;20646;-84
2023/11/30 12:16:43;;;;;;;5.03;3.70;;;2.10;97.40;;;;;;5053211;28;20792;-84
2023/11/30 12:19:10;;;;;;;5.10;3.90;;;2.10;97.80;;;;;;5045342;28;20218;-84
2023/11/30 12:21:37;;;;;;;5.00;4.00;;;2.10;97.50;;;;;;5032359;28;20712;-84
2023/11/30 12:24:05;;;;;;;5.20;3.80;;;2.00;97.80;;;;;;5052339;28;20380;-85
2023/11/30 12:26:31;;;;;;;5.03;3.77;;;2.10;98.00;;;;;;5055436;28;20304;-84
2023/11/30 12:28:59;;;;;;;6.57;4.20;;;2.20;97.60;;;;;;5050352;28;20212;-84
2023/11/30 12:31:26;;;;;;;5.87;4.10;;;2.20;98.20;;;;;;5045477;28;20291;-83
2023/11/30 12:33:55;;;;;;;5.27;4.17;;;2.40;98.10;;;;;;5046580;28;20193;-84
2023/11/30 12:36:22;;;;;;;6.20;4.47;;;2.20;97.60;;;;;;5047047;28;20203;-84
2023/11/30 12:38:50;;;;;;;6.03;4.10;;;2.20;97.80;;;;;;5046407;28;20640;-82
2023/11/30 12:41:18;;;;;;;8.30;4.47;;;2.20;97.80;;;;;;5034862;28;20245;-85
2023/11/30 12:43:45;;;;;;;7.73;4.43;;;2.20;97.80;;;;;;5050419;28;20293;-84
2023/11/30 12:46:12;;;;;;;5.30;3.93;;;2.20;98.30;;;;;;5035594;28;20204;-81
2023/11/30 12:48:39;;;;;;;7.07;4.23;;;2.10;98.20;;;;;;5045519;28;20205;-84
2023/11/30 12:51:09;;;;;;;5.30;3.90;;;2.10;98.40;;;;;;5052379;28;20678;-81
2023/11/30 12:53:36;;;;;;;7.87;4.80;;;2.00;98.40;;;;;;5051600;28;20209;-81
2023/11/30 12:56:04;;;;;;;8.43;4.73;;;2.00;98.80;;;;;;5047444;28;20208;-83